Milford Haven, United Kingdom
Current Conditions -  °F | °C
As of 5:50 PM on Saturday 25 Oct 2014 (Local Time) from EGOP Reporting Station
Broken Clouds Broken Clouds  
Wind Chill: 14°   Ceiling: 4100
Heat Index: 14°   Visibility: 6mi
Dew Point: 10°   Wind: 28mph
Humidity: 77%   Direction: 240°WSW
Pressure: 30.03"   Gusts: NA
Location:  51.71°N, 5.03°W
Report Text: EGOP 251650Z AUTO 24024KT 9999 // BKN041/// 14/10 Q1017
Loading
Personal Weather Stations






























Interactive Weather Map
Tropical Storm Tracking
New forecast layout! Learn more

10-Day Weather Forecast

Advertisements
Track Severe Weather on mobile